Time;durP1;ratioP1;P1;durP2;ratioP2;P2;SDS_P1;SDS_P2;PMS_P1;PMS_P2;Temp;Humidity;BMP_temperature;BMP_pressure;BME280_temperature;BME280_humidity;BME280_pressure;Samples;Min_cycle;Max_cycle;Signal;HPM_P1;HPM_P2
2024/01/04 00:00:25;;;;;;;;;;;8.60;99.90;;;;;;5090071;28;19928;-69
2024/01/04 00:02:51;;;;;;;;;;;8.50;99.90;;;;;;5088706;28;20128;-69
2024/01/04 00:05:19;;;;;;;;;;;8.60;99.90;;;;;;5091138;28;19994;-69
2024/01/04 00:07:46;;;;;;;;;;;8.50;99.90;;;;;;5095644;28;19928;-69
2024/01/04 00:10:14;;;;;;;;;;;8.50;99.90;;;;;;5097657;28;20387;-69
2024/01/04 00:12:41;;;;;;;;;;;8.50;99.90;;;;;;5098108;28;19931;-69
2024/01/04 00:15:08;;;;;;;;;;;8.40;99.90;;;;;;5089142;28;19986;-69
2024/01/04 00:17:34;;;;;;;;;;;8.40;99.90;;;;;;5097719;28;19940;-69
2024/01/04 00:20:01;;;;;;;;;;;8.40;99.90;;;;;;5097960;28;19924;-69
2024/01/04 00:22:29;;;;;;;;;;;8.40;99.90;;;;;;5097665;28;20363;-69
2024/01/04 00:24:55;;;;;;;;;;;8.40;99.90;;;;;;5098150;28;19928;-69
2024/01/04 00:27:22;;;;;;;;;;;8.40;99.90;;;;;;5097950;28;20336;-69
2024/01/04 00:29:48;;;;;;;;;;;8.40;99.90;;;;;;5090959;28;19979;-69
2024/01/04 00:32:15;;;;;;;;;;;8.40;99.90;;;;;;5098202;28;19977;-69
2024/01/04 00:34:41;;;;;;;;;;;8.40;99.90;;;;;;5095511;28;19924;-69
2024/01/04 00:37:08;;;;;;;;;;;8.40;99.90;;;;;;5098101;28;19928;-69
2024/01/04 00:39:35;;;;;;;;;;;8.40;99.90;;;;;;5098319;28;19932;-69
2024/01/04 00:42:02;;;;;;;;;;;8.40;99.90;;;;;;5092963;28;19976;-69
2024/01/04 00:44:29;;;;;;;;;;;8.40;99.90;;;;;;5095485;28;20030;-69
2024/01/04 00:46:55;;;;;;;;;;;8.60;99.90;;;;;;5098120;28;19924;-69
2024/01/04 00:49:22;;;;;;;;;;;8.40;99.90;;;;;;5097888;28;19925;-69
2024/01/04 00:51:48;;;;;;;;;;;8.30;99.90;;;;;;5096743;28;19931;-68
2024/01/04 00:54:15;;;;;;;;;;;8.40;99.90;;;;;;5098320;28;19978;-69
2024/01/04 00:56:43;;;;;;;;;;;8.40;99.90;;;;;;5097257;28;20278;-69
2024/01/04 00:59:09;;;;;;;;;;;8.30;99.90;;;;;;5097458;28;20282;-69
2024/01/04 01:01:35;;;;;;;;;;;8.30;99.90;;;;;;5098092;28;19924;-69
2024/01/04 01:04:02;;;;;;;;;;;8.30;99.90;;;;;;5097430;28;19925;-69
2024/01/04 01:06:29;;;;;;;;;;;8.30;99.90;;;;;;5098088;28;19935;-69
2024/01/04 01:08:55;;;;;;;;;;;8.30;99.90;;;;;;5098352;28;19924;-69
2024/01/04 01:11:22;;;;;;;;;;;8.30;99.90;;;;;;5098087;28;19924;-69
2024/01/04 01:13:50;;;;;;;;;;;8.30;99.90;;;;;;5096335;28;19947;-69
2024/01/04 01:16:16;;;;;;;;;;;8.30;99.90;;;;;;5091920;28;19924;-69
2024/01/04 01:18:43;;;;;;;;;;;8.40;99.90;;;;;;5095245;28;20352;-69
2024/01/04 01:21:09;;;;;;;;;;;8.40;99.90;;;;;;5094833;28;19928;-69
2024/01/04 01:23:36;;;;;;;;;;;8.30;99.90;;;;;;5094899;28;19924;-69
2024/01/04 01:26:03;;;;;;;;;;;8.30;99.90;;;;;;5082311;28;19947;-69
2024/01/04 01:28:29;;;;;;;;;;;8.10;99.90;;;;;;5093125;28;20011;-69
2024/01/04 01:30:59;;;;;;;;;;;8.10;99.90;;;;;;5090239;28;19998;-69
2024/01/04 01:33:26;;;;;;;;;;;8.10;99.90;;;;;;5094060;28;20358;-68
2024/01/04 01:35:52;;;;;;;;;;;8.00;99.90;;;;;;5094466;28;19924;-68
2024/01/04 01:38:19;;;;;;;;;;;7.90;99.90;;;;;;5094439;28;19924;-68
2024/01/04 01:40:46;;;;;;;;;;;7.90;99.90;;;;;;5094291;28;19924;-68
2024/01/04 01:43:12;;;;;;;;;;;7.90;99.90;;;;;;5094056;28;20382;-69
2024/01/04 01:45:39;;;;;;;;;;;7.90;99.90;;;;;;5094147;28;20011;-68
2024/01/04 01:48:07;;;;;;;;;;;7.90;99.90;;;;;;5094128;28;19931;-68
2024/01/04 01:50:34;;;;;;;;;;;7.80;99.90;;;;;;5094163;28;19924;-68
2024/01/04 01:53:00;;;;;;;;;;;7.80;99.90;;;;;;5092580;28;19977;-69
2024/01/04 01:55:27;;;;;;;;;;;7.70;99.90;;;;;;5094156;28;19928;-69
2024/01/04 01:57:54;;;;;;;;;;;7.70;99.90;;;;;;5088516;28;19978;-69
2024/01/04 02:00:21;;;;;;;;;;;7.70;99.90;;;;;;5091737;28;20283;-69
2024/01/04 02:02:48;;;;;;;;;;;7.60;99.90;;;;;;5091659;28;20383;-69
2024/01/04 02:05:16;;;;;;;;;;;7.60;99.90;;;;;;5093733;28;20019;-69
2024/01/04 02:07:43;;;;;;;;;;;7.60;99.90;;;;;;5093829;28;21143;-69
2024/01/04 02:10:10;;;;;;;;;;;7.60;99.90;;;;;;5093715;28;20290;-69
2024/01/04 02:12:36;;;;;;;;;;;7.50;99.90;;;;;;5093827;28;19924;-69
2024/01/04 02:15:03;;;;;;;;;;;7.50;99.90;;;;;;5079357;28;19993;-69
2024/01/04 02:17:29;;;;;;;;;;;7.50;99.90;;;;;;5093819;28;19924;-69
2024/01/04 02:19:57;;;;;;;;;;;7.50;99.90;;;;;;5093571;28;19938;-69
2024/01/04 02:22:25;;;;;;;;;;;7.50;99.90;;;;;;5093759;28;19977;-69
2024/01/04 02:24:52;;;;;;;;;;;7.50;99.90;;;;;;5089505;28;19925;-69
2024/01/04 02:27:19;;;;;;;;;;;7.40;99.90;;;;;;5093342;28;19993;-69
2024/01/04 02:29:45;;;;;;;;;;;7.40;99.90;;;;;;5091817;28;20447;-69
2024/01/04 02:32:12;;;;;;;;;;;7.40;99.90;;;;;;5087880;28;19924;-69
2024/01/04 02:34:38;;;;;;;;;;;7.40;99.90;;;;;;5091455;28;19928;-69
2024/01/04 02:37:05;;;;;;;;;;;7.40;99.90;;;;;;5093473;28;19997;-69
2024/01/04 02:39:31;;;;;;;;;;;7.40;99.90;;;;;;5088880;28;19928;-68
2024/01/04 02:41:59;;;;;;;;;;;7.40;99.90;;;;;;5091103;28;20335;-68
2024/01/04 02:44:26;;;;;;;;;;;7.30;99.90;;;;;;5093202;28;19958;-68
2024/01/04 02:46:52;;;;;;;;;;;7.30;99.90;;;;;;5092917;28;20382;-69
2024/01/04 02:49:19;;;;;;;;;;;7.30;99.90;;;;;;5092675;28;19932;-69
2024/01/04 02:51:46;;;;;;;;;;;7.30;99.90;;;;;;5091105;28;19974;-69
2024/01/04 02:54:12;;;;;;;;;;;7.30;99.90;;;;;;5090298;28;19970;-69
2024/01/04 02:56:39;;;;;;;;;;;7.30;99.90;;;;;;5091421;28;19973;-69
2024/01/04 02:59:07;;;;;;;;;;;7.30;99.90;;;;;;5092317;28;19928;-69
2024/01/04 03:01:34;;;;;;;;;;;7.30;99.90;;;;;;5092866;28;20454;-69
2024/01/04 03:04:00;;;;;;;;;;;7.30;99.90;;;;;;5092685;28;19924;-69
2024/01/04 03:06:29;;;;;;;;;;;7.30;99.90;;;;;;5092841;28;19925;-69
2024/01/04 03:08:56;;;;;;;;;;;7.30;99.90;;;;;;5092549;28;20040;-69
2024/01/04 03:11:22;;;;;;;;;;;7.30;99.90;;;;;;5092438;28;19928;-69
2024/01/04 03:13:49;;;;;;;;;;;7.30;99.90;;;;;;5090707;28;19965;-69
2024/01/04 03:16:19;;;;;;;;;;;7.30;99.90;;;;;;5086551;28;19924;-69
2024/01/04 03:18:45;;;;;;;;;;;7.30;99.90;;;;;;5092329;28;19954;-69
2024/01/04 03:21:13;;;;;;;;;;;7.40;99.90;;;;;;5092350;28;19953;-68
2024/01/04 03:23:39;;;;;;;;;;;7.30;99.90;;;;;;5092046;28;20363;-68
2024/01/04 03:26:06;;;;;;;;;;;7.30;99.90;;;;;;5088004;28;19924;-69
2024/01/04 03:28:32;;;;;;;;;;;7.30;99.90;;;;;;5090853;28;20328;-69
2024/01/04 03:30:59;;;;;;;;;;;7.30;99.90;;;;;;5092104;28;19935;-69
2024/01/04 03:33:27;;;;;;;;;;;7.30;99.90;;;;;;5092251;28;19954;-69
2024/01/04 03:35:53;;;;;;;;;;;7.30;99.90;;;;;;5092074;28;20368;-69
2024/01/04 03:38:20;;;;;;;;;;;7.30;99.90;;;;;;5091687;28;19928;-69
2024/01/04 03:40:46;;;;;;;;;;;7.40;99.90;;;;;;5091830;28;20451;-69
2024/01/04 03:43:13;;;;;;;;;;;7.40;99.90;;;;;;5091877;28;19931;-69
2024/01/04 03:45:39;;;;;;;;;;;7.40;99.90;;;;;;5092080;28;19928;-69
2024/01/04 03:48:06;;;;;;;;;;;7.50;99.90;;;;;;5092010;28;19924;-68
2024/01/04 03:50:34;;;;;;;;;;;7.50;99.90;;;;;;5091807;28;20015;-68
2024/01/04 03:53:02;;;;;;;;;;;7.50;99.90;;;;;;5087045;28;19977;-69
2024/01/04 03:55:28;;;;;;;;;;;7.60;99.90;;;;;;5092056;28;19977;-69
2024/01/04 03:57:55;;;;;;;;;;;7.50;99.90;;;;;;5091754;28;20329;-69
2024/01/04 04:00:21;;;;;;;;;;;7.50;99.90;;;;;;5091461;28;19924;-69
2024/01/04 04:02:48;;;;;;;;;;;7.60;99.90;;;;;;5089396;28;20466;-69
2024/01/04 04:05:14;;;;;;;;;;;7.60;99.90;;;;;;5089829;28;19985;-69
2024/01/04 04:07:42;;;;;;;;;;;7.60;99.90;;;;;;5089919;28;19932;-69
2024/01/04 04:10:09;;;;;;;;;;;7.60;99.90;;;;;;5090126;28;19924;-69
2024/01/04 04:12:35;;;;;;;;;;;7.70;99.90;;;;;;5091884;28;20445;-69
2024/01/04 04:15:02;;;;;;;;;;;7.60;99.90;;;;;;5083468;28;19924;-69
2024/01/04 04:17:29;;;;;;;;;;;7.60;99.90;;;;;;5091740;28;19947;-68
2024/01/04 04:19:55;;;;;;;;;;;7.70;99.90;;;;;;5091241;28;19927;-69
2024/01/04 04:22:22;;;;;;;;;;;7.70;99.90;;;;;;5091508;28;19924;-69
2024/01/04 04:24:50;;;;;;;;;;;7.70;99.90;;;;;;5084470;28;19928;-69
2024/01/04 04:27:16;;;;;;;;;;;7.70;99.90;;;;;;5091783;28;19931;-69
2024/01/04 04:29:43;;;;;;;;;;;7.70;99.90;;;;;;5081877;28;19985;-69
2024/01/04 04:32:09;;;;;;;;;;;7.70;99.90;;;;;;5091576;28;19924;-69
2024/01/04 04:34:36;;;;;;;;;;;7.70;99.90;;;;;;5084544;28;19924;-69
2024/01/04 04:37:03;;;;;;;;;;;7.70;99.90;;;;;;5090270;28;20389;-69
2024/01/04 04:39:29;;;;;;;;;;;7.70;99.90;;;;;;5090790;28;19924;-69
2024/01/04 04:41:58;;;;;;;;;;;7.70;99.90;;;;;;5083753;28;20573;-69
2024/01/04 04:44:24;;;;;;;;;;;7.70;99.90;;;;;;5091459;28;19950;-69
2024/01/04 04:46:52;;;;;;;;;;;7.70;99.90;;;;;;5091280;28;19954;-69
2024/01/04 04:49:18;;;;;;;;;;;7.70;99.90;;;;;;5085536;28;19932;-69
2024/01/04 04:51:49;;;;;;;;;;;7.70;99.90;;;;;;5091493;28;19925;-69
2024/01/04 04:54:16;;;;;;;;;;;7.70;99.90;;;;;;5093181;28;19932;-69
2024/01/04 04:56:42;;;;;;;;;;;7.60;99.90;;;;;;5088486;28;20398;-69
2024/01/04 04:59:11;;;;;;;;;;;7.60;99.90;;;;;;5087175;28;19924;-69
2024/01/04 05:01:37;;;;;;;;;;;7.50;99.90;;;;;;5094335;28;20037;-69
2024/01/04 05:04:04;;;;;;;;;;;7.50;99.90;;;;;;5094810;28;19986;-69
2024/01/04 05:06:30;;;;;;;;;;;7.50;99.90;;;;;;5094708;28;19935;-69
2024/01/04 05:08:57;;;;;;;;;;;7.40;99.90;;;;;;5094346;28;20628;-69
2024/01/04 05:11:23;;;;;;;;;;;7.40;99.90;;;;;;5094180;28;19935;-69
2024/01/04 05:13:50;;;;;;;;;;;7.40;99.90;;;;;;5093069;28;20287;-69
2024/01/04 05:16:19;;;;;;;;;;;7.40;99.90;;;;;;5088296;28;19990;-69
2024/01/04 05:18:46;;;;;;;;;;;7.40;99.90;;;;;;5094887;28;19930;-69
2024/01/04 05:21:13;;;;;;;;;;;7.40;99.90;;;;;;5088431;28;19970;-69
2024/01/04 05:23:39;;;;;;;;;;;7.40;99.90;;;;;;5094613;28;19924;-69
2024/01/04 05:26:06;;;;;;;;;;;7.30;99.90;;;;;;5094308;28;20355;-69
2024/01/04 05:28:32;;;;;;;;;;;7.30;99.90;;;;;;5091952;28;19931;-69
2024/01/04 05:30:59;;;;;;;;;;;7.30;99.90;;;;;;5093339;28;20353;-69
2024/01/04 05:33:27;;;;;;;;;;;7.30;99.90;;;;;;5094271;28;19977;-69
2024/01/04 05:35:53;;;;;;;;;;;7.30;99.90;;;;;;5092051;28;20394;-69
2024/01/04 05:38:20;;;;;;;;;;;7.30;99.90;;;;;;5094495;28;19969;-69
2024/01/04 05:40:46;;;;;;;;;;;7.30;99.90;;;;;;5093941;28;19932;-69
2024/01/04 05:43:12;;;;;;;;;;;7.30;99.90;;;;;;5094293;28;19924;-69
2024/01/04 05:45:39;;;;;;;;;;;7.30;99.90;;;;;;5094090;28;20647;-69
2024/01/04 05:48:06;;;;;;;;;;;7.30;99.90;;;;;;5094329;28;19993;-69
2024/01/04 05:50:34;;;;;;;;;;;7.30;99.90;;;;;;5094152;28;19930;-69
2024/01/04 05:53:00;;;;;;;;;;;7.30;99.90;;;;;;5090443;28;19935;-69
2024/01/04 05:55:27;;;;;;;;;;;7.30;99.90;;;;;;5094154;28;19985;-69
2024/01/04 05:57:54;;;;;;;;;;;7.20;99.90;;;;;;5092791;28;19968;-69
2024/01/04 06:00:21;;;;;;;;;;;7.20;99.90;;;;;;5093359;28;19929;-69
2024/01/04 06:02:47;;;;;;;;;;;7.60;99.90;;;;;;5092013;28;20444;-69
2024/01/04 06:05:14;;;;;;;;;;;7.10;99.90;;;;;;5093633;28;20023;-69
2024/01/04 06:07:42;;;;;;;;;;;7.10;99.90;;;;;;5093377;28;20006;-69
2024/01/04 06:10:09;;;;;;;;;;;7.00;99.90;;;;;;5086251;28;19997;-69
2024/01/04 06:12:35;;;;;;;;;;;6.90;99.90;;;;;;5093206;28;20393;-69
2024/01/04 06:15:03;;;;;;;;;;;6.90;99.90;;;;;;5084870;28;19932;-69
2024/01/04 06:17:29;;;;;;;;;;;6.90;99.90;;;;;;5084968;28;19931;-69
2024/01/04 06:19:56;;;;;;;;;;;6.90;99.90;;;;;;5092299;28;19949;-68
2024/01/04 06:22:22;;;;;;;;;;;6.90;99.90;;;;;;5093582;28;19924;-68
2024/01/04 06:24:50;;;;;;;;;;;6.80;99.90;;;;;;5093333;28;19924;-69
2024/01/04 06:27:17;;;;;;;;;;;6.80;99.90;;;;;;5085435;28;19928;-68
2024/01/04 06:29:44;;;;;;;;;;;6.80;99.90;;;;;;5090805;28;19928;-69
2024/01/04 06:32:10;;;;;;;;;;;6.90;99.90;;;;;;5093399;28;19928;-69
2024/01/04 06:34:37;;;;;;;;;;;6.90;99.90;;;;;;5093382;28;19950;-69
2024/01/04 06:37:03;;;;;;;;;;;6.80;99.90;;;;;;5092850;28;19932;-69
2024/01/04 06:39:30;;;;;;;;;;;6.80;99.90;;;;;;5092910;28;20413;-69
2024/01/04 06:41:58;;;;;;;;;;;6.80;99.90;;;;;;5092236;28;19977;-69
2024/01/04 06:44:24;;;;;;;;;;;6.90;99.90;;;;;;5085835;28;19928;-69
2024/01/04 06:46:51;;;;;;;;;;;6.90;99.90;;;;;;5091360;28;19927;-69
2024/01/04 06:49:17;;;;;;;;;;;6.90;99.90;;;;;;5091842;28;19931;-69
2024/01/04 06:51:44;;;;;;;;;;;6.90;99.90;;;;;;5092812;28;19970;-69
2024/01/04 06:54:10;;;;;;;;;;;6.90;99.90;;;;;;5086216;28;20332;-69
2024/01/04 06:56:37;;;;;;;;;;;6.90;99.90;;;;;;5083745;28;19977;-69
2024/01/04 06:59:05;;;;;;;;;;;6.80;99.90;;;;;;5090967;28;20390;-68
2024/01/04 07:01:31;;;;;;;;;;;6.80;99.90;;;;;;5092403;28;20093;-67
2024/01/04 07:03:59;;;;;;;;;;;6.90;99.90;;;;;;5091900;28;20347;-67
2024/01/04 07:06:25;;;;;;;;;;;6.90;99.90;;;;;;5092061;28;19927;-67
2024/01/04 07:08:52;;;;;;;;;;;6.90;99.90;;;;;;5091939;28;19928;-66
2024/01/04 07:11:18;;;;;;;;;;;6.90;99.90;;;;;;5092041;28;20313;-67
2024/01/04 07:13:44;;;;;;;;;;;6.90;99.90;;;;;;5090352;28;19924;-67
2024/01/04 07:16:12;;;;;;;;;;;6.90;99.90;;;;;;5081559;28;19927;-67
2024/01/04 07:18:39;;;;;;;;;;;6.90;99.90;;;;;;5090695;28;19974;-67
2024/01/04 07:21:05;;;;;;;;;;;6.90;99.90;;;;;;5090980;28;19924;-67
2024/01/04 07:23:32;;;;;;;;;;;6.90;99.90;;;;;;5090503;28;19924;-67
2024/01/04 07:25:58;;;;;;;;;;;6.90;99.90;;;;;;5090574;28;20413;-67
2024/01/04 07:28:25;;;;;;;;;;;6.90;99.90;;;;;;5090808;28;19932;-68
2024/01/04 07:30:51;;;;;;;;;;;6.90;99.90;;;;;;5089681;28;19984;-67
2024/01/04 07:33:21;;;;;;;;;;;6.90;99.90;;;;;;5091773;28;19927;-67
2024/01/04 07:35:47;;;;;;;;;;;6.90;99.90;;;;;;5091567;28;20303;-67
2024/01/04 07:38:14;;;;;;;;;;;6.90;99.90;;;;;;5091685;28;19977;-68
2024/01/04 07:40:40;;;;;;;;;;;6.80;99.90;;;;;;5091088;28;20382;-67
2024/01/04 07:43:07;;;;;;;;;;;6.80;99.90;;;;;;5090617;28;19969;-67
2024/01/04 07:45:35;;;;;;;;;;;6.80;99.90;;;;;;5090635;28;19927;-68
2024/01/04 07:48:01;;;;;;;;;;;6.80;99.90;;;;;;5090801;28;19924;-68
2024/01/04 07:50:29;;;;;;;;;;;6.80;99.90;;;;;;5091581;28;19924;-68
2024/01/04 07:52:56;;;;;;;;;;;6.80;99.90;;;;;;5091638;28;19928;-68
2024/01/04 07:55:22;;;;;;;;;;;6.80;99.90;;;;;;5085570;28;20011;-68
2024/01/04 07:57:49;;;;;;;;;;;6.80;99.90;;;;;;5091202;28;20389;-67
2024/01/04 08:00:16;;;;;;;;;;;6.90;99.90;;;;;;5089273;28;19923;-67
2024/01/04 08:02:42;;;;;;;;;;;6.80;99.90;;;;;;5085192;28;19935;-68
2024/01/04 08:05:10;;;;;;;;;;;6.90;99.90;;;;;;5086090;28;19993;-68
2024/01/04 08:07:37;;;;;;;;;;;6.80;99.90;;;;;;5086076;28;19932;-67
2024/01/04 08:10:04;;;;;;;;;;;6.80;99.90;;;;;;5087664;28;19932;-68
2024/01/04 08:12:31;;;;;;;;;;;6.80;99.90;;;;;;5088023;28;19986;-68
2024/01/04 08:14:57;;;;;;;;;;;6.80;99.90;;;;;;5086565;28;20386;-68
2024/01/04 08:17:24;;;;;;;;;;;6.90;99.90;;;;;;5087544;28;19977;-67
2024/01/04 08:19:50;;;;;;;;;;;6.90;99.90;;;;;;5086084;28;19932;-67
2024/01/04 08:22:17;;;;;;;;;;;7.00;99.90;;;;;;5087241;28;19981;-67
2024/01/04 08:24:45;;;;;;;;;;;7.00;99.90;;;;;;5085630;28;19936;-67
2024/01/04 08:27:11;;;;;;;;;;;7.00;99.90;;;;;;5084793;28;19924;-67
2024/01/04 08:29:38;;;;;;;;;;;7.10;99.90;;;;;;5090712;28;19978;-67
2024/01/04 08:32:05;;;;;;;;;;;7.10;99.90;;;;;;5091068;28;20394;-68
2024/01/04 08:34:31;;;;;;;;;;;7.10;99.90;;;;;;5089968;28;19928;-68
2024/01/04 08:36:59;;;;;;;;;;;7.10;99.90;;;;;;5089841;28;19936;-67
2024/01/04 08:39:25;;;;;;;;;;;7.10;99.90;;;;;;5091166;28;20402;-67
2024/01/04 08:41:53;;;;;;;;;;;7.20;99.90;;;;;;5090573;28;19978;-67
2024/01/04 08:44:20;;;;;;;;;;;7.20;99.90;;;;;;5089705;28;19935;-67
2024/01/04 08:46:46;;;;;;;;;;;7.20;99.90;;;;;;5089270;28;20527;-67
2024/01/04 08:49:13;;;;;;;;;;;7.20;99.90;;;;;;5090413;28;19969;-67
2024/01/04 08:51:39;;;;;;;;;;;7.30;99.90;;;;;;5090026;28;19971;-67
2024/01/04 08:54:06;;;;;;;;;;;7.30;99.90;;;;;;5090328;28;20340;-67
2024/01/04 08:56:33;;;;;;;;;;;7.30;99.90;;;;;;5088998;28;19970;-67
2024/01/04 08:59:02;;;;;;;;;;;7.30;99.90;;;;;;5088401;28;19927;-67
2024/01/04 09:01:28;;;;;;;;;;;7.30;99.90;;;;;;5089754;28;19932;-67
2024/01/04 09:03:55;;;;;;;;;;;7.40;99.90;;;;;;5090170;28;20363;-67
2024/01/04 09:06:22;;;;;;;;;;;7.40;99.90;;;;;;5087671;28;19924;-67
2024/01/04 09:08:49;;;;;;;;;;;7.40;99.90;;;;;;5089647;28;19936;-67
2024/01/04 09:11:16;;;;;;;;;;;7.40;99.90;;;;;;5090015;28;20015;-67
2024/01/04 09:13:44;;;;;;;;;;;7.40;99.90;;;;;;5090518;28;19986;-67
2024/01/04 09:16:12;;;;;;;;;;;7.50;99.90;;;;;;5089734;28;19939;-67
2024/01/04 09:18:38;;;;;;;;;;;7.60;99.90;;;;;;5090223;28;19932;-67
2024/01/04 09:21:05;;;;;;;;;;;7.60;99.90;;;;;;5089919;28;20013;-67
2024/01/04 09:23:32;;;;;;;;;;;7.60;99.90;;;;;;5090014;28;19924;-67
2024/01/04 09:25:58;;;;;;;;;;;7.70;99.90;;;;;;5089962;28;20291;-67
2024/01/04 09:28:26;;;;;;;;;;;7.80;99.90;;;;;;5089582;28;19928;-67
2024/01/04 09:30:53;;;;;;;;;;;7.80;99.90;;;;;;5088518;28;20010;-67
2024/01/04 09:33:24;;;;;;;;;;;7.80;99.90;;;;;;5086753;28;19932;-67
2024/01/04 09:35:50;;;;;;;;;;;7.80;99.90;;;;;;5087049;28;19924;-67
2024/01/04 09:38:18;;;;;;;;;;;7.90;99.90;;;;;;5089513;28;20019;-67
2024/01/04 09:40:45;;;;;;;;;;;7.80;99.90;;;;;;5088097;28;19932;-67
2024/01/04 09:43:14;;;;;;;;;;;7.90;99.90;;;;;;5089750;28;19932;-67
2024/01/04 09:45:43;;;;;;;;;;;7.90;99.90;;;;;;5087645;28;19924;-67
2024/01/04 09:48:11;;;;;;;;;;;7.90;99.90;;;;;;5089854;28;19939;-68
2024/01/04 09:50:39;;;;;;;;;;;8.00;99.90;;;;;;5090100;28;19936;-67
2024/01/04 09:53:06;;;;;;;;;;;8.00;99.90;;;;;;5089985;28;20451;-67
2024/01/04 09:55:35;;;;;;;;;;;8.00;99.90;;;;;;5089209;28;19978;-68
2024/01/04 09:58:03;;;;;;;;;;;8.00;99.90;;;;;;5089801;28;19947;-67
2024/01/04 10:00:29;;;;;;;;;;;8.00;99.90;;;;;;5088531;28;19928;-67
2024/01/04 10:02:58;;;;;;;;;;;8.00;99.90;;;;;;5089122;28;19939;-67
2024/01/04 10:05:25;;;;;;;;;;;7.90;99.90;;;;;;5089586;28;19936;-67
2024/01/04 10:07:57;;;;;;;;;;;7.90;99.90;;;;;;5089337;28;19977;-67
2024/01/04 10:10:24;;;;;;;;;;;8.00;99.90;;;;;;5088303;28;19932;-67
2024/01/04 10:12:51;;;;;;;;;;;8.00;99.90;;;;;;5088524;28;20422;-67
2024/01/04 10:15:18;;;;;;;;;;;8.00;99.90;;;;;;5087896;28;19939;-67
2024/01/04 10:17:45;;;;;;;;;;;8.00;99.90;;;;;;5088396;28;20386;-68
2024/01/04 10:20:12;;;;;;;;;;;8.10;99.90;;;;;;5089138;28;19931;-67
2024/01/04 10:22:40;;;;;;;;;;;8.10;99.90;;;;;;5086699;28;19958;-67
2024/01/04 10:25:09;;;;;;;;;;;8.20;99.90;;;;;;5088883;28;19925;-68
2024/01/04 10:27:35;;;;;;;;;;;8.20;99.90;;;;;;5088990;28;20330;-67
2024/01/04 10:30:06;;;;;;;;;;;8.20;99.90;;;;;;5088701;28;19932;-68
2024/01/04 10:32:32;;;;;;;;;;;8.30;99.90;;;;;;5088113;28;19924;-67
2024/01/04 10:35:03;;;;;;;;;;;8.30;99.90;;;;;;5088082;28;19924;-67
2024/01/04 10:37:29;;;;;;;;;;;8.30;99.90;;;;;;5089108;28;19985;-67
2024/01/04 10:39:56;;;;;;;;;;;8.30;99.90;;;;;;5088187;28;19935;-67
2024/01/04 10:42:24;;;;;;;;;;;8.40;99.90;;;;;;5087924;28;19932;-67
2024/01/04 10:44:51;;;;;;;;;;;8.40;99.90;;;;;;5089246;28;19924;-67
2024/01/04 10:47:18;;;;;;;;;;;8.30;99.90;;;;;;5088773;28;20341;-67
2024/01/04 10:49:46;;;;;;;;;;;8.20;99.90;;;;;;5088612;28;19981;-67
2024/01/04 10:52:14;;;;;;;;;;;8.20;99.90;;;;;;5087855;28;19932;-67
2024/01/04 10:54:41;;;;;;;;;;;8.10;99.90;;;;;;5087827;28;19939;-67
2024/01/04 10:57:08;;;;;;;;;;;8.00;99.90;;;;;;5088832;28;19939;-67
2024/01/04 10:59:36;;;;;;;;;;;8.00;99.90;;;;;;5088975;28;19932;-67
2024/01/04 11:02:03;;;;;;;;;;;8.10;99.90;;;;;;5088523;28;19924;-67
2024/01/04 11:04:31;;;;;;;;;;;8.10;99.90;;;;;;5087290;28;19936;-67
2024/01/04 11:06:58;;;;;;;;;;;8.20;99.90;;;;;;5087124;28;19940;-67
2024/01/04 11:09:25;;;;;;;;;;;8.30;99.90;;;;;;5087977;28;20054;-67
2024/01/04 11:11:52;;;;;;;;;;;8.20;99.90;;;;;;5088618;28;19939;-67
2024/01/04 11:14:19;;;;;;;;;;;8.20;99.90;;;;;;5087673;28;19932;-67
2024/01/04 11:16:58;;;;;;;;;;;8.10;99.90;;;;;;5088040;28;19924;-67
2024/01/04 11:19:30;;;;;;;;;;;8.00;99.90;;;;;;5087566;28;19944;-67
2024/01/04 11:22:04;;;;;;;;;;;8.00;99.90;;;;;;5086841;28;19932;-67
2024/01/04 11:24:34;;;;;;;;;;;7.80;99.90;;;;;;5087297;28;20397;-67
2024/01/04 11:27:04;;;;;;;;;;;8.40;99.90;;;;;;5086993;28;19932;-68
2024/01/04 11:29:32;;;;;;;;;;;8.70;99.90;;;;;;5086655;28;19943;-68
2024/01/04 11:32:02;;;;;;;;;;;8.90;99.90;;;;;;5087538;28;19932;-67
2024/01/04 11:34:28;;;;;;;;;;;9.00;99.90;;;;;;5087406;28;19994;-67
2024/01/04 11:37:08;;;;;;;;;;;8.80;99.90;;;;;;5087472;28;19924;-67
2024/01/04 11:39:35;;;;;;;;;;;8.70;99.90;;;;;;5086482;28;19951;-67
2024/01/04 11:42:12;;;;;;;;;;;8.60;99.90;;;;;;5086822;28;19936;-67
2024/01/04 11:44:39;;;;;;;;;;;8.70;99.90;;;;;;5086308;28;19993;-67
2024/01/04 11:47:14;;;;;;;;;;;9.20;99.90;;;;;;5087192;28;19985;-67
2024/01/04 11:49:46;;;;;;;;;;;9.20;99.90;;;;;;5086660;28;20251;-67
2024/01/04 11:52:13;;;;;;;;;;;9.40;99.90;;;;;;5087607;28;20013;-68
2024/01/04 11:54:41;;;;;;;;;;;9.60;99.90;;;;;;5087149;28;20602;-68
2024/01/04 11:57:17;;;;;;;;;;;9.50;99.90;;;;;;5088340;28;19932;-67
2024/01/04 11:59:43;;;;;;;;;;;9.20;99.90;;;;;;5087701;28;20018;-68
2024/01/04 12:02:17;;;;;;;;;;;9.30;99.90;;;;;;5086381;28;19924;-67
2024/01/04 12:04:43;;;;;;;;;;;9.40;99.90;;;;;;5087122;28;19932;-67
2024/01/04 12:07:10;;;;;;;;;;;9.70;99.90;;;;;;5086699;28;19970;-68
2024/01/04 12:09:37;;;;;;;;;;;9.90;99.90;;;;;;5087470;28;19939;-67
2024/01/04 12:12:04;;;;;;;;;;;9.90;99.90;;;;;;5087120;28;19965;-67
2024/01/04 12:14:31;;;;;;;;;;;9.80;99.90;;;;;;5086694;28;19928;-68
2024/01/04 12:16:58;;;;;;;;;;;10.00;99.90;;;;;;5086492;28;19924;-68
2024/01/04 12:19:27;;;;;;;;;;;10.00;99.90;;;;;;5087309;28;20150;-67
2024/01/04 12:21:54;;;;;;;;;;;9.90;99.90;;;;;;5087414;28;19932;-68
2024/01/04 12:24:22;;;;;;;;;;;9.90;99.90;;;;;;5087347;28;19924;-68
2024/01/04 12:26:49;;;;;;;;;;;10.00;99.90;;;;;;5087145;28;20027;-68
2024/01/04 12:29:16;;;;;;;;;;;10.30;99.90;;;;;;5087167;28;19928;-68
2024/01/04 12:31:44;;;;;;;;;;;10.10;99.90;;;;;;5086709;28;19932;-68
2024/01/04 12:34:11;;;;;;;;;;;10.10;99.90;;;;;;5087548;28;19924;-67
2024/01/04 12:36:39;;;;;;;;;;;10.30;99.90;;;;;;5087605;28;19928;-68
2024/01/04 12:39:07;;;;;;;;;;;10.50;99.90;;;;;;5086768;28;19932;-68
2024/01/04 12:41:37;;;;;;;;;;;10.60;99.90;;;;;;5087549;28;19932;-68
2024/01/04 12:44:04;;;;;;;;;;;10.80;99.90;;;;;;5088195;28;20446;-67
2024/01/04 12:46:31;;;;;;;;;;;10.40;99.90;;;;;;5087255;28;19982;-67
2024/01/04 12:49:05;;;;;;;;;;;10.10;99.90;;;;;;5087217;28;20139;-67
2024/01/04 12:51:35;;;;;;;;;;;10.10;99.90;;;;;;5087261;28;20699;-67
2024/01/04 12:54:03;;;;;;;;;;;10.30;99.90;;;;;;5086153;28;19930;-67
2024/01/04 12:56:30;;;;;;;;;;;10.60;99.90;;;;;;5087238;28;20352;-68
2024/01/04 12:58:57;;;;;;;;;;;10.50;99.90;;;;;;5087323;28;19981;-67
2024/01/04 13:01:23;;;;;;;;;;;10.50;99.90;;;;;;5086744;28;20382;-68
2024/01/04 13:03:50;;;;;;;;;;;10.50;99.90;;;;;;5087393;28;19938;-68
2024/01/04 13:06:16;;;;;;;;;;;10.80;99.90;;;;;;5085249;28;20043;-67
2024/01/04 13:08:43;;;;;;;;;;;10.80;99.90;;;;;;5086351;28;20409;-67
2024/01/04 13:11:11;;;;;;;;;;;10.70;99.90;;;;;;5086833;28;19939;-67
2024/01/04 13:13:38;;;;;;;;;;;10.60;99.90;;;;;;5087365;28;19981;-67
2024/01/04 13:16:05;;;;;;;;;;;10.40;99.90;;;;;;5089793;28;19977;-67
2024/01/04 13:18:31;;;;;;;;;;;10.20;99.90;;;;;;5090913;28;20448;-68
2024/01/04 13:20:58;;;;;;;;;;;10.10;99.90;;;;;;5090644;28;19932;-67
2024/01/04 13:23:24;;;;;;;;;;;10.10;99.90;;;;;;5090017;28;19931;-67
2024/01/04 13:25:52;;;;;;;;;;;9.90;99.90;;;;;;5090039;28;19978;-67
2024/01/04 13:28:19;;;;;;;;;;;9.90;99.90;;;;;;5090530;28;19932;-67
2024/01/04 13:30:46;;;;;;;;;;;10.00;99.90;;;;;;5089711;28;20336;-67
2024/01/04 13:33:12;;;;;;;;;;;10.00;99.90;;;;;;5090515;28;19977;-68
2024/01/04 13:35:39;;;;;;;;;;;10.10;99.90;;;;;;5089717;28;20319;-67
2024/01/04 13:38:05;;;;;;;;;;;10.20;99.90;;;;;;5090358;28;19977;-67
2024/01/04 13:40:32;;;;;;;;;;;10.10;99.90;;;;;;5089980;28;20321;-67
2024/01/04 13:42:59;;;;;;;;;;;10.20;99.90;;;;;;5090640;28;20589;-67
2024/01/04 13:45:28;;;;;;;;;;;10.30;99.90;;;;;;5090451;28;19954;-67
2024/01/04 13:47:57;;;;;;;;;;;10.30;99.90;;;;;;5089620;28;19924;-67
2024/01/04 13:50:26;;;;;;;;;;;10.40;99.90;;;;;;5089317;28;20675;-67
2024/01/04 13:52:54;;;;;;;;;;;10.10;99.90;;;;;;5089570;28;20361;-68
2024/01/04 13:55:21;;;;;;;;;;;9.90;99.90;;;;;;5089278;28;19935;-67
2024/01/04 13:57:48;;;;;;;;;;;9.60;99.90;;;;;;5090032;28;20386;-67
2024/01/04 14:00:16;;;;;;;;;;;9.40;99.90;;;;;;5089199;28;19938;-67
2024/01/04 14:02:44;;;;;;;;;;;9.20;99.90;;;;;;5087472;28;19951;-67
2024/01/04 14:05:11;;;;;;;;;;;9.10;99.90;;;;;;5088844;28;19924;-67
2024/01/04 14:07:37;;;;;;;;;;;9.00;99.90;;;;;;5089462;28;20726;-68
2024/01/04 14:10:04;;;;;;;;;;;8.90;99.90;;;;;;5088378;28;19927;-68
2024/01/04 14:12:31;;;;;;;;;;;8.90;99.90;;;;;;5089783;28;19930;-68
2024/01/04 14:14:57;;;;;;;;;;;8.90;99.90;;;;;;5087713;28;20390;-68
2024/01/04 14:17:24;;;;;;;;;;;8.90;99.90;;;;;;5088918;28;19932;-68
2024/01/04 14:19:51;;;;;;;;;;;8.90;99.90;;;;;;5089632;28;19931;-68
2024/01/04 14:22:18;;;;;;;;;;;8.90;99.90;;;;;;5089788;28;20016;-68
2024/01/04 14:24:45;;;;;;;;;;;9.00;99.90;;;;;;5089558;28;19924;-68
2024/01/04 14:27:13;;;;;;;;;;;9.00;99.90;;;;;;5089068;28;19938;-68